createdAt,value
2023-09-13T00:00:31.996Z,3.70
2023-09-13T00:02:58.605Z,3.58
2023-09-13T00:05:25.329Z,3.88
2023-09-13T00:07:51.945Z,3.13
2023-09-13T00:10:19.983Z,3.08
2023-09-13T00:12:46.694Z,3.45
2023-09-13T00:15:13.739Z,3.55
2023-09-13T00:17:40.300Z,3.20
2023-09-13T00:20:08.766Z,3.20
2023-09-13T00:22:35.385Z,3.55
2023-09-13T00:25:01.938Z,3.10
2023-09-13T00:27:28.496Z,2.90
2023-09-13T00:29:55.109Z,3.30
2023-09-13T00:32:21.689Z,2.63
2023-09-13T00:34:48.213Z,2.47
2023-09-13T00:37:14.841Z,3.85
2023-09-13T00:39:41.574Z,2.90
2023-09-13T00:42:08.118Z,2.80
2023-09-13T00:44:34.679Z,3.25
2023-09-13T00:47:01.324Z,3.10
2023-09-13T00:49:27.935Z,3.30
2023-09-13T00:51:56.378Z,2.95
2023-09-13T00:54:23.208Z,3.00
2023-09-13T00:56:49.822Z,2.60
2023-09-13T00:59:16.622Z,2.88
2023-09-13T01:01:43.251Z,2.88
2023-09-13T01:04:10.137Z,2.80
2023-09-13T01:06:38.570Z,2.72
2023-09-13T01:09:05.945Z,3.30
2023-09-13T01:11:33.280Z,2.90
2023-09-13T01:13:59.841Z,3.15
2023-09-13T01:16:38.694Z,2.60
2023-09-13T01:19:33.614Z,2.70
2023-09-13T01:22:39.051Z,3.00
2023-09-13T01:25:17.717Z,3.13
2023-09-13T01:27:47.184Z,2.85
2023-09-13T01:30:15.618Z,2.80
2023-09-13T01:32:52.355Z,2.72
2023-09-13T01:35:19.081Z,2.63
2023-09-13T01:37:45.707Z,2.88
2023-09-13T01:40:12.609Z,2.65
2023-09-13T01:42:40.089Z,2.53
2023-09-13T01:45:12.298Z,3.00
2023-09-13T01:47:42.110Z,2.78
2023-09-13T01:50:09.514Z,3.28
2023-09-13T01:52:36.484Z,2.60
2023-09-13T01:55:09.746Z,2.40
2023-09-13T01:57:36.312Z,3.10
2023-09-13T02:00:06.065Z,3.22
2023-09-13T02:02:32.763Z,3.58
2023-09-13T02:04:59.341Z,3.53
2023-09-13T02:07:26.105Z,2.78
2023-09-13T02:09:53.565Z,3.17
2023-09-13T02:12:20.211Z,2.80
2023-09-13T02:14:46.785Z,2.75
2023-09-13T02:17:13.344Z,2.97
2023-09-13T02:19:40.178Z,2.85
2023-09-13T02:22:06.857Z,2.40
2023-09-13T02:24:34.014Z,3.00
2023-09-13T02:27:00.727Z,2.30
2023-09-13T02:29:27.471Z,2.42
2023-09-13T02:31:54.282Z,2.20
2023-09-13T02:34:21.268Z,2.22
2023-09-13T02:36:49.076Z,2.15
2023-09-13T02:39:35.824Z,2.60
2023-09-13T02:42:07.082Z,2.03
2023-09-13T02:44:34.222Z,2.40
2023-09-13T02:47:02.420Z,1.90
2023-09-13T02:49:29.167Z,2.00
2023-09-13T02:51:56.103Z,2.13
2023-09-13T02:54:22.835Z,2.05
2023-09-13T02:56:50.705Z,2.05
2023-09-13T02:59:17.441Z,2.40
2023-09-13T03:01:44.358Z,2.13
2023-09-13T03:04:12.309Z,2.03
2023-09-13T03:06:40.980Z,2.10
2023-09-13T03:09:08.230Z,2.28
2023-09-13T03:11:38.859Z,2.30
2023-09-13T03:14:06.681Z,2.38
2023-09-13T03:16:33.430Z,2.60
2023-09-13T03:19:00.348Z,2.22
2023-09-13T03:21:28.529Z,2.38
2023-09-13T03:23:55.340Z,2.30
2023-09-13T03:26:24.185Z,2.00
2023-09-13T03:28:53.253Z,2.63
2023-09-13T03:31:21.642Z,2.83
2023-09-13T03:33:50.672Z,2.58
2023-09-13T03:36:18.198Z,2.88
2023-09-13T03:38:45.966Z,2.70
2023-09-13T03:41:14.433Z,3.15
2023-09-13T03:43:41.218Z,3.05
2023-09-13T03:46:09.375Z,3.35
2023-09-13T03:48:37.115Z,4.20
2023-09-13T03:51:04.888Z,3.78
2023-09-13T03:53:32.027Z,3.78
2023-09-13T03:55:59.841Z,3.97
2023-09-13T03:58:27.066Z,3.83
2023-09-13T04:00:54.578Z,3.80
2023-09-13T04:03:22.106Z,4.10
2023-09-13T04:05:48.968Z,3.75
2023-09-13T04:08:15.578Z,4.05
2023-09-13T04:10:42.117Z,3.80
2023-09-13T04:13:08.728Z,4.35
2023-09-13T04:15:35.595Z,3.88
2023-09-13T04:18:02.190Z,3.95
2023-09-13T04:20:28.761Z,4.05
2023-09-13T04:22:55.300Z,4.15
2023-09-13T04:25:21.967Z,4.32
2023-09-13T04:27:49.361Z,5.18
2023-09-13T04:30:17.056Z,5.00
2023-09-13T04:32:44.128Z,4.63
2023-09-13T04:35:13.250Z,4.68
2023-09-13T04:37:40.124Z,4.35
2023-09-13T04:40:07.453Z,4.40
2023-09-13T04:42:47.933Z,4.53
2023-09-13T04:45:14.519Z,5.05
2023-09-13T04:47:41.157Z,4.47
2023-09-13T04:50:10.023Z,4.43
2023-09-13T04:52:38.845Z,4.63
2023-09-13T04:55:06.552Z,4.63
2023-09-13T04:57:34.113Z,5.28
2023-09-13T05:00:00.697Z,5.13
2023-09-13T05:02:28.066Z,6.03
2023-09-13T05:04:54.971Z,4.82
2023-09-13T05:07:21.630Z,5.32
2023-09-13T05:09:48.257Z,4.50
2023-09-13T05:12:14.923Z,4.80
2023-09-13T05:14:43.780Z,4.90
2023-09-13T05:17:11.089Z,5.32
2023-09-13T05:19:38.028Z,4.57
2023-09-13T05:22:04.856Z,4.45
2023-09-13T05:24:31.446Z,4.97
2023-09-13T05:26:58.106Z,4.00
2023-09-13T05:29:24.719Z,4.65
2023-09-13T05:31:51.400Z,3.85
2023-09-13T05:34:18.084Z,3.80
2023-09-13T05:36:44.648Z,3.40
2023-09-13T05:39:11.940Z,4.25
2023-09-13T05:41:39.455Z,4.50
2023-09-13T05:44:12.318Z,5.47
2023-09-13T05:46:38.904Z,5.10
2023-09-13T05:49:06.305Z,5.07
2023-09-13T05:51:32.887Z,5.03
2023-09-13T05:53:59.580Z,5.60
2023-09-13T05:56:27.905Z,5.20
2023-09-13T05:58:54.753Z,6.13
2023-09-13T06:01:21.479Z,5.30
2023-09-13T06:03:48.286Z,5.18
2023-09-13T06:06:15.058Z,5.93
2023-09-13T06:08:41.692Z,5.50
2023-09-13T06:11:08.943Z,6.97
2023-09-13T06:13:35.578Z,6.25
2023-09-13T06:16:02.391Z,6.93
2023-09-13T06:18:29.923Z,6.22
2023-09-13T06:20:57.096Z,6.70
2023-09-13T06:23:35.561Z,6.68
2023-09-13T06:26:03.211Z,5.82
2023-09-13T06:28:30.613Z,5.57
2023-09-13T06:31:04.028Z,5.93
2023-09-13T06:36:01.976Z,5.20
2023-09-13T06:38:29.433Z,4.90
2023-09-13T06:40:57.320Z,4.78
2023-09-13T06:46:04.614Z,4.95
2023-09-13T06:48:34.201Z,4.72
2023-09-13T06:53:35.086Z,4.55
2023-09-13T06:56:05.725Z,5.10
2023-09-13T06:58:38.319Z,4.35
2023-09-13T07:01:28.866Z,4.43
2023-09-13T07:03:59.229Z,4.57
2023-09-13T07:08:54.492Z,4.10
2023-09-13T07:11:21.057Z,4.45
2023-09-13T07:13:47.688Z,4.30
2023-09-13T07:16:14.321Z,4.10
2023-09-13T07:18:40.887Z,4.10
2023-09-13T07:21:07.472Z,4.13
2023-09-13T07:23:35.012Z,4.15
2023-09-13T07:26:01.616Z,4.00
2023-09-13T07:28:28.261Z,4.30
2023-09-13T07:30:54.930Z,3.97
2023-09-13T07:33:21.650Z,4.13
2023-09-13T07:35:48.223Z,4.32
2023-09-13T07:38:15.626Z,4.35
2023-09-13T07:40:42.453Z,4.43
2023-09-13T07:43:09.129Z,4.05
2023-09-13T07:45:35.858Z,4.22
2023-09-13T07:48:04.143Z,4.57
2023-09-13T07:50:38.151Z,4.57
2023-09-13T07:53:06.433Z,3.80
2023-09-13T07:55:34.681Z,4.18
2023-09-13T07:58:02.025Z,4.20
2023-09-13T08:00:28.561Z,3.85
2023-09-13T08:02:55.644Z,3.63
2023-09-13T08:05:22.458Z,3.30
2023-09-13T08:07:49.319Z,3.20
2023-09-13T08:10:15.887Z,3.97
2023-09-13T08:12:42.864Z,3.30
2023-09-13T08:15:09.884Z,3.30
2023-09-13T08:17:36.661Z,3.05
2023-09-13T08:20:08.543Z,3.20
2023-09-13T08:22:39.718Z,3.00
2023-09-13T08:25:11.868Z,2.63
2023-09-13T08:27:38.943Z,3.03
2023-09-13T08:30:06.224Z,2.90
2023-09-13T08:32:32.860Z,2.72
2023-09-13T08:34:59.450Z,3.15
2023-09-13T08:37:27.275Z,3.30
2023-09-13T08:39:55.593Z,3.05
2023-09-13T08:42:22.310Z,2.53
2023-09-13T08:44:51.143Z,2.85
2023-09-13T08:47:18.523Z,2.92
2023-09-13T08:49:47.329Z,2.47
2023-09-13T08:52:15.896Z,2.65
2023-09-13T08:54:57.423Z,2.50
2023-09-13T08:57:28.666Z,2.15
2023-09-13T08:59:55.284Z,2.58
2023-09-13T09:02:25.144Z,2.17
2023-09-13T09:04:53.360Z,2.20
2023-09-13T09:07:21.166Z,2.38
2023-09-13T09:09:50.944Z,2.30
2023-09-13T09:12:19.922Z,2.17
2023-09-13T09:14:47.869Z,2.10
2023-09-13T09:17:15.864Z,2.70
2023-09-13T09:19:42.533Z,2.45
2023-09-13T09:22:11.429Z,2.15
2023-09-13T09:24:40.890Z,1.90
2023-09-13T09:27:07.556Z,1.50
2023-09-13T09:29:40.921Z,1.60
2023-09-13T09:32:09.850Z,1.88
2023-09-13T09:34:42.641Z,1.60
2023-09-13T09:39:41.935Z,1.35
2023-09-13T09:42:14.972Z,1.60
2023-09-13T09:44:41.478Z,1.58
2023-09-13T09:47:15.090Z,1.08
2023-09-13T09:49:44.865Z,1.42
2023-09-13T09:52:12.508Z,1.40
2023-09-13T09:54:39.266Z,1.10
2023-09-13T09:57:06.742Z,1.30
2023-09-13T09:59:38.709Z,1.27
2023-09-13T10:02:05.425Z,1.63
2023-09-13T10:04:45.844Z,1.40
2023-09-13T10:07:12.636Z,1.77
2023-09-13T10:09:44.071Z,1.60
2023-09-13T10:12:12.070Z,1.25
2023-09-13T10:14:40.315Z,1.23
2023-09-13T10:17:08.215Z,1.58
2023-09-13T10:19:35.568Z,0.95
2023-09-13T10:22:03.623Z,1.38
2023-09-13T10:24:40.871Z,1.15
2023-09-13T10:27:09.096Z,1.17
2023-09-13T10:29:46.918Z,1.17
2023-09-13T10:32:17.054Z,1.45
2023-09-13T10:34:52.609Z,1.17
2023-09-13T10:37:31.225Z,1.17
2023-09-13T10:40:11.208Z,1.02
2023-09-13T10:42:41.234Z,1.20
2023-09-13T10:45:09.157Z,1.50
2023-09-13T10:47:38.928Z,1.23
2023-09-13T10:50:10.838Z,1.05
2023-09-13T10:52:39.061Z,1.20
2023-09-13T10:55:07.026Z,1.20
2023-09-13T10:57:35.160Z,0.85
2023-09-13T11:00:11.145Z,0.98
2023-09-13T11:02:42.905Z,1.08
2023-09-13T11:05:11.760Z,1.10
2023-09-13T11:07:41.863Z,0.75
2023-09-13T11:10:16.481Z,1.10
2023-09-13T11:12:50.839Z,0.90
2023-09-13T11:15:22.021Z,0.90
2023-09-13T11:17:48.946Z,1.20
2023-09-13T11:20:39.649Z,0.80
2023-09-13T11:25:59.824Z,0.90
2023-09-13T11:28:39.835Z,1.00
2023-09-13T11:31:08.402Z,0.95
2023-09-13T11:33:58.714Z,0.90
2023-09-13T11:36:26.861Z,1.10
2023-09-13T11:38:54.998Z,0.90
2023-09-13T11:41:21.815Z,1.02
2023-09-13T11:44:04.013Z,1.10
2023-09-13T11:46:32.221Z,1.00
2023-09-13T11:49:02.299Z,1.20
2023-09-13T11:54:16.528Z,1.50
2023-09-13T11:56:46.561Z,1.50
2023-09-13T11:59:15.343Z,1.95
2023-09-13T12:01:48.818Z,0.90
2023-09-13T12:06:55.117Z,1.10
2023-09-13T12:09:28.854Z,1.20
2023-09-13T12:12:01.552Z,1.20
2023-09-13T12:14:57.001Z,1.15
2023-09-13T12:17:20.499Z,1.55
2023-09-13T12:19:48.250Z,2.15
2023-09-13T12:22:19.800Z,1.70
2023-09-13T12:24:53.017Z,1.30
2023-09-13T12:27:19.791Z,1.40
2023-09-13T12:29:47.943Z,1.20
2023-09-13T12:32:16.068Z,1.05
2023-09-13T12:34:43.316Z,1.30
2023-09-13T12:37:10.085Z,1.58
2023-09-13T12:39:36.674Z,1.35
2023-09-13T12:42:09.369Z,1.52
2023-09-13T12:44:38.318Z,1.30
2023-09-13T12:47:05.948Z,1.83
2023-09-13T12:49:32.640Z,1.70
2023-09-13T12:51:59.383Z,1.50
2023-09-13T12:54:26.576Z,0.95
2023-09-13T12:56:53.278Z,1.00
2023-09-13T12:59:20.156Z,0.85
2023-09-13T13:01:56.865Z,1.00
2023-09-13T13:04:33.689Z,1.05
2023-09-13T13:07:02.726Z,1.10
2023-09-13T13:09:30.147Z,0.90
2023-09-13T13:11:57.134Z,1.83
2023-09-13T13:14:24.871Z,1.58
2023-09-13T13:17:02.445Z,1.33
2023-09-13T13:19:45.728Z,1.20
2023-09-13T13:22:18.645Z,1.08
2023-09-13T13:24:46.103Z,1.38
2023-09-13T13:27:12.821Z,1.20
2023-09-13T13:29:39.890Z,1.10
2023-09-13T13:32:07.411Z,1.40
2023-09-13T13:34:34.215Z,1.33
2023-09-13T13:37:00.902Z,1.70
2023-09-13T13:39:29.184Z,1.55
2023-09-13T13:41:55.981Z,1.45
2023-09-13T13:44:22.633Z,1.90
2023-09-13T13:46:50.352Z,1.95
2023-09-13T13:49:19.046Z,2.08
2023-09-13T13:51:46.757Z,3.72
2023-09-13T13:54:13.501Z,2.95
2023-09-13T13:56:43.383Z,2.40
2023-09-13T13:59:12.001Z,1.98
2023-09-13T14:01:38.911Z,1.80
2023-09-13T14:04:05.968Z,1.40
2023-09-13T14:06:33.568Z,1.67
2023-09-13T14:09:04.528Z,1.35
2023-09-13T14:11:31.173Z,1.42
2023-09-13T14:13:57.841Z,1.50
2023-09-13T14:16:24.482Z,1.52
2023-09-13T14:18:51.135Z,1.60
2023-09-13T14:21:17.925Z,1.77
2023-09-13T14:23:45.125Z,1.60
2023-09-13T14:26:11.885Z,1.95
2023-09-13T14:28:38.452Z,1.63
2023-09-13T14:31:07.357Z,1.60
2023-09-13T14:33:38.978Z,1.63
2023-09-13T14:36:05.731Z,1.58
2023-09-13T14:38:32.280Z,1.80
2023-09-13T14:40:59.061Z,1.38
2023-09-13T14:43:25.727Z,1.60
2023-09-13T14:45:52.364Z,1.77
2023-09-13T14:48:19.088Z,1.42
2023-09-13T14:50:45.747Z,1.83
2023-09-13T14:53:12.298Z,1.55
2023-09-13T14:55:39.592Z,1.45
2023-09-13T14:58:06.211Z,1.95
2023-09-13T15:00:32.982Z,1.60
2023-09-13T15:03:02.750Z,1.80
2023-09-13T15:05:29.444Z,1.70
2023-09-13T15:07:56.110Z,1.50
2023-09-13T15:10:22.847Z,1.80
2023-09-13T15:12:49.790Z,1.88
2023-09-13T15:15:16.502Z,1.63
2023-09-13T15:17:43.078Z,1.60
2023-09-13T15:20:11.048Z,1.20
2023-09-13T15:22:37.583Z,1.70
2023-09-13T15:25:04.601Z,1.50
2023-09-13T15:27:31.167Z,2.05
2023-09-13T15:29:58.503Z,2.10
2023-09-13T15:32:25.038Z,2.67
2023-09-13T15:34:51.637Z,2.25
2023-09-13T15:37:18.166Z,2.45
2023-09-13T15:39:45.479Z,2.30
2023-09-13T15:42:12.066Z,2.08
2023-09-13T15:44:38.580Z,1.70
2023-09-13T15:47:05.233Z,1.90
2023-09-13T15:49:32.495Z,2.13
2023-09-13T15:51:59.172Z,1.58
2023-09-13T15:54:26.503Z,2.05
2023-09-13T15:56:53.371Z,1.88
2023-09-13T15:59:19.953Z,2.03
2023-09-13T16:01:46.629Z,1.73
2023-09-13T16:04:13.274Z,2.10
2023-09-13T16:06:40.217Z,1.85
2023-09-13T16:09:07.504Z,1.95
2023-09-13T16:11:35.706Z,1.63
2023-09-13T16:14:03.578Z,1.80
2023-09-13T16:16:32.173Z,1.98
2023-09-13T16:18:59.161Z,1.80
2023-09-13T16:21:27.053Z,1.77
2023-09-13T16:23:54.072Z,2.40
2023-09-13T16:26:22.555Z,1.60
2023-09-13T16:28:49.134Z,1.80
2023-09-13T16:31:17.824Z,1.20
2023-09-13T16:33:44.808Z,1.50
2023-09-13T16:36:11.559Z,1.65
2023-09-13T16:38:38.208Z,1.73
2023-09-13T16:41:04.830Z,1.90
2023-09-13T16:43:31.813Z,1.95
2023-09-13T16:45:58.370Z,2.28
2023-09-13T16:48:34.287Z,1.75
2023-09-13T16:51:02.033Z,2.00
2023-09-13T16:53:28.614Z,1.98
2023-09-13T16:55:55.222Z,2.00
2023-09-13T16:58:21.872Z,1.88
2023-09-13T17:00:49.929Z,2.15
2023-09-13T17:03:16.913Z,2.10
2023-09-13T17:05:43.794Z,2.15
2023-09-13T17:08:10.330Z,1.67
2023-09-13T17:10:36.973Z,1.52
2023-09-13T17:13:03.988Z,2.00
2023-09-13T17:15:30.646Z,1.95
2023-09-13T17:17:57.297Z,2.30
2023-09-13T17:20:23.844Z,2.50
2023-09-13T17:22:50.414Z,2.55
2023-09-13T17:25:17.101Z,3.00
2023-09-13T17:27:43.952Z,2.60
2023-09-13T17:30:10.929Z,2.45
2023-09-13T17:32:37.504Z,2.38
2023-09-13T17:35:04.289Z,2.25
2023-09-13T17:37:30.855Z,2.38
2023-09-13T17:39:57.729Z,2.33
2023-09-13T17:42:24.732Z,2.35
2023-09-13T17:44:52.168Z,2.00
2023-09-13T17:47:19.898Z,2.85
2023-09-13T17:49:46.430Z,2.42
2023-09-13T17:52:13.044Z,2.30
2023-09-13T17:54:39.839Z,2.15
2023-09-13T17:57:07.222Z,2.13
2023-09-13T17:59:33.780Z,2.40
2023-09-13T18:02:00.437Z,2.00
2023-09-13T18:04:27.292Z,2.10
2023-09-13T18:06:53.986Z,2.15
2023-09-13T18:09:20.654Z,2.22
2023-09-13T18:11:48.079Z,1.77
2023-09-13T18:14:14.652Z,1.65
2023-09-13T18:16:41.269Z,1.70
2023-09-13T18:19:07.947Z,2.00
2023-09-13T18:21:34.840Z,1.83
2023-09-13T18:24:01.543Z,1.70
2023-09-13T18:26:28.077Z,2.08
2023-09-13T18:28:55.773Z,1.98
2023-09-13T18:31:22.640Z,1.83
2023-09-13T18:33:49.378Z,2.10
2023-09-13T18:36:15.979Z,2.22
2023-09-13T18:38:43.450Z,2.00
2023-09-13T18:41:10.553Z,2.03
2023-09-13T18:43:37.404Z,1.90
2023-09-13T18:46:05.678Z,1.88
2023-09-13T18:48:33.216Z,2.20
2023-09-13T18:51:01.513Z,2.38
2023-09-13T18:53:29.344Z,2.20
2023-09-13T18:55:57.489Z,1.95
2023-09-13T18:58:29.043Z,2.08
2023-09-13T19:01:00.555Z,1.95
2023-09-13T19:03:28.597Z,2.30
2023-09-13T19:06:06.737Z,2.85
2023-09-13T19:08:33.487Z,2.30
2023-09-13T19:11:03.393Z,2.30
2023-09-13T19:13:32.872Z,1.92
2023-09-13T19:16:05.463Z,2.10
2023-09-13T19:18:34.130Z,1.95
2023-09-13T19:21:00.936Z,2.00
2023-09-13T19:23:29.544Z,1.83
2023-09-13T19:25:57.938Z,2.05
2023-09-13T19:28:27.432Z,2.00
2023-09-13T19:30:56.063Z,1.90
2023-09-13T19:33:26.591Z,2.28
2023-09-13T19:35:58.689Z,2.10
2023-09-13T19:38:30.274Z,2.40
2023-09-13T19:40:57.912Z,2.28
2023-09-13T19:43:29.482Z,2.20
2023-09-13T19:45:57.812Z,1.60
2023-09-13T19:48:26.202Z,1.83
2023-09-13T19:51:05.688Z,2.03
2023-09-13T19:53:32.720Z,1.95
2023-09-13T19:56:00.095Z,1.60
2023-09-13T19:58:27.033Z,1.80
2023-09-13T20:00:56.725Z,1.90
2023-09-13T20:03:23.438Z,1.80
2023-09-13T20:05:50.667Z,1.50
2023-09-13T20:08:17.166Z,1.63
2023-09-13T20:10:51.887Z,1.80
2023-09-13T20:13:18.478Z,2.00
2023-09-13T20:15:45.203Z,2.45
2023-09-13T20:18:11.854Z,3.08
2023-09-13T20:20:38.669Z,2.70
2023-09-13T20:23:05.170Z,3.35
2023-09-13T20:25:32.011Z,2.55
2023-09-13T20:27:58.636Z,2.42
2023-09-13T20:30:25.356Z,3.40
2023-09-13T20:32:51.955Z,2.42
2023-09-13T20:35:18.614Z,5.05
2023-09-13T20:37:45.717Z,2.53
2023-09-13T20:40:12.374Z,1.65
2023-09-13T20:42:40.211Z,1.60
2023-09-13T20:45:13.492Z,2.17
2023-09-13T20:47:41.755Z,2.70
2023-09-13T20:50:10.100Z,2.05
2023-09-13T20:52:36.713Z,1.67
2023-09-13T20:55:03.602Z,1.33
2023-09-13T20:57:30.566Z,2.13
2023-09-13T20:59:57.273Z,1.98
2023-09-13T21:02:23.968Z,2.20
2023-09-13T21:04:50.723Z,2.10
2023-09-13T21:07:17.380Z,2.30
2023-09-13T21:09:43.966Z,1.83
2023-09-13T21:12:11.675Z,1.90
2023-09-13T21:14:38.550Z,1.92
2023-09-13T21:17:05.223Z,2.30
2023-09-13T21:19:32.688Z,2.58
2023-09-13T21:21:59.512Z,2.92
2023-09-13T21:24:26.368Z,3.20
2023-09-13T21:26:54.565Z,3.28
2023-09-13T21:29:21.545Z,3.42
2023-09-13T21:31:48.221Z,2.95
2023-09-13T21:34:14.846Z,3.95
2023-09-13T21:36:41.466Z,2.65
2023-09-13T21:39:08.842Z,2.60
2023-09-13T21:41:35.444Z,2.38
2023-09-13T21:44:02.088Z,2.42
2023-09-13T21:46:28.638Z,4.10
2023-09-13T21:48:55.333Z,4.35
2023-09-13T21:51:21.894Z,3.38
2023-09-13T21:53:48.453Z,3.50
2023-09-13T21:56:15.009Z,2.33
2023-09-13T21:58:41.634Z,2.70
2023-09-13T22:01:08.612Z,2.75
2023-09-13T22:03:35.290Z,3.38
2023-09-13T22:06:02.040Z,2.80
2023-09-13T22:08:28.601Z,2.88
2023-09-13T22:11:09.732Z,3.25
2023-09-13T22:13:37.806Z,2.17
2023-09-13T22:16:06.604Z,2.13
2023-09-13T22:18:33.464Z,2.13
2023-09-13T22:21:02.967Z,2.10
2023-09-13T22:23:32.011Z,2.13
2023-09-13T22:25:59.529Z,2.90
2023-09-13T22:28:27.780Z,3.60
2023-09-13T22:31:00.933Z,2.90
2023-09-13T22:33:29.806Z,2.30
2023-09-13T22:35:57.210Z,2.58
2023-09-13T22:38:25.757Z,2.42
2023-09-13T22:40:53.376Z,2.42
2023-09-13T22:43:20.158Z,2.30
2023-09-13T22:45:46.818Z,2.15
2023-09-13T22:48:13.532Z,2.33
2023-09-13T22:50:40.114Z,2.60
2023-09-13T22:53:06.726Z,2.20
2023-09-13T22:55:34.617Z,2.13
2023-09-13T22:58:01.490Z,2.58
2023-09-13T23:00:28.023Z,2.50
2023-09-13T23:02:54.709Z,2.47
2023-09-13T23:05:21.408Z,2.70
2023-09-13T23:07:54.704Z,2.15
2023-09-13T23:10:22.131Z,2.70
2023-09-13T23:12:48.889Z,2.78
2023-09-13T23:15:15.681Z,3.13
2023-09-13T23:17:42.314Z,3.08
2023-09-13T23:20:12.662Z,2.80
2023-09-13T23:22:39.191Z,2.20
2023-09-13T23:25:05.957Z,2.45
2023-09-13T23:27:32.588Z,2.55
2023-09-13T23:29:59.142Z,2.90
2023-09-13T23:32:28.229Z,3.53
2023-09-13T23:34:56.044Z,2.95
2023-09-13T23:37:23.227Z,2.28
2023-09-13T23:39:51.086Z,2.17
2023-09-13T23:42:17.897Z,2.13
2023-09-13T23:44:44.498Z,2.33
2023-09-13T23:47:11.104Z,2.20
2023-09-13T23:49:37.631Z,2.50
2023-09-13T23:52:04.618Z,1.95
2023-09-13T23:54:31.268Z,2.10
2023-09-13T23:56:57.828Z,2.45
2023-09-13T23:59:24.346Z,2.15
